Time;durP1;ratioP1;P1;durP2;ratioP2;P2;SDS_P1;SDS_P2;PMS_P1;PMS_P2;Temp;Humidity;BMP_temperature;BMP_pressure;BME280_temperature;BME280_humidity;BME280_pressure;Samples;Min_cycle;Max_cycle;Signal;HPM_P1;HPM_P2
2021/04/26 00:01:26;;;;;;;1.05;1.00;;;22.70;31.10;;;;;;5067422;28;20075;-59
2021/04/26 00:03:54;;;;;;;1.15;1.05;;;22.70;31.00;;;;;;5057192;28;20367;-60
2021/04/26 00:06:21;;;;;;;1.40;1.30;;;22.70;31.00;;;;;;5065006;28;20330;-60
2021/04/26 00:08:48;;;;;;;3.22;1.10;;;22.80;31.00;;;;;;5068006;28;20056;-60
2021/04/26 00:11:15;;;;;;;1.00;1.00;;;22.80;31.00;;;;;;5066713;28;20048;-60
2021/04/26 00:13:42;;;;;;;0.88;0.85;;;22.80;31.00;;;;;;5067902;28;20040;-60
2021/04/26 00:16:08;;;;;;;0.77;0.77;;;22.80;31.00;;;;;;5066883;28;20163;-59
2021/04/26 00:18:36;;;;;;;1.40;1.10;;;22.80;31.00;;;;;;5067371;28;20076;-59
2021/04/26 00:21:02;;;;;;;1.10;1.10;;;22.80;31.00;;;;;;5067022;28;20041;-59
2021/04/26 00:23:29;;;;;;;0.70;0.70;;;22.80;31.00;;;;;;5067236;28;20459;-60
2021/04/26 00:25:56;;;;;;;0.77;0.77;;;22.70;31.00;;;;;;5066953;28;20084;-60
2021/04/26 00:28:22;;;;;;;1.73;1.02;;;22.70;31.10;;;;;;5066069;28;20055;-60
2021/04/26 00:30:49;;;;;;;1.08;0.98;;;22.70;31.00;;;;;;5067278;28;20305;-60
2021/04/26 00:33:16;;;;;;;0.95;0.93;;;22.70;31.10;;;;;;5067718;28;20472;-60
2021/04/26 00:35:42;;;;;;;1.38;1.27;;;22.70;31.10;;;;;;5066614;28;20041;-59
2021/04/26 00:38:09;;;;;;;1.17;0.88;;;22.70;31.20;;;;;;5066887;28;20144;-59
2021/04/26 00:40:36;;;;;;;1.10;1.10;;;22.70;31.20;;;;;;5066736;28;20113;-60
2021/04/26 00:43:02;;;;;;;0.80;0.80;;;22.70;31.20;;;;;;5066974;28;20048;-58
2021/04/26 00:45:30;;;;;;;1.10;1.00;;;22.70;31.20;;;;;;5066372;28;20576;-59
2021/04/26 00:47:56;;;;;;;0.80;0.80;;;22.60;31.20;;;;;;5066910;28;20048;-60
2021/04/26 00:50:26;;;;;;;1.30;1.00;;;22.60;31.20;;;;;;5066468;28;20118;-60
2021/04/26 00:52:54;;;;;;;1.00;1.00;;;22.60;31.20;;;;;;5066720;28;20048;-59
2021/04/26 00:55:25;;;;;;;1.00;0.90;;;22.60;31.20;;;;;;5066564;28;20044;-59
2021/04/26 00:57:53;;;;;;;1.38;0.95;;;22.70;31.20;;;;;;5067002;28;20083;-59
2021/04/26 01:00:20;;;;;;;0.93;0.90;;;22.70;31.20;;;;;;5066223;28;20049;-59
2021/04/26 01:02:47;;;;;;;0.90;0.90;;;22.70;31.20;;;;;;5067205;28;20281;-59
2021/04/26 01:05:17;;;;;;;1.02;1.02;;;22.70;31.20;;;;;;5065697;28;20040;-59
2021/04/26 01:07:45;;;;;;;1.77;1.45;;;22.70;31.20;;;;;;5066432;28;20490;-58
2021/04/26 01:10:14;;;;;;;1.15;1.02;;;22.70;31.20;;;;;;5066011;28;20048;-58
2021/04/26 01:13:21;;;;;;;0.88;0.88;;;22.70;31.10;;;;;;5065559;28;20072;-58
2021/04/26 01:16:19;;;;;;;0.90;0.90;;;22.70;31.20;;;;;;5064376;28;20139;-59
2021/04/26 01:18:57;;;;;;;0.80;0.80;;;22.70;31.20;;;;;;5066476;28;20057;-59
2021/04/26 01:22:03;;;;;;;0.93;0.90;;;22.70;31.20;;;;;;5065859;28;20312;-59
2021/04/26 01:24:58;;;;;;;0.95;0.95;;;22.70;31.20;;;;;;5066376;28;20083;-59
2021/04/26 01:27:53;;;;;;;1.38;1.27;;;22.70;31.30;;;;;;5065347;28;20064;-60
2021/04/26 01:30:52;;;;;;;1.02;0.77;;;22.60;31.30;;;;;;5065857;28;20075;-60
2021/04/26 01:33:21;;;;;;;0.95;0.93;;;22.60;31.30;;;;;;5065861;28;20121;-59
2021/04/26 01:35:49;;;;;;;0.90;0.90;;;22.60;31.30;;;;;;5065111;28;20059;-59
2021/04/26 01:38:25;;;;;;;1.08;0.98;;;22.60;31.40;;;;;;5066101;28;20129;-59
2021/04/26 01:40:54;;;;;;;0.90;0.90;;;22.60;31.40;;;;;;5065760;28;20084;-59
2021/04/26 01:43:25;;;;;;;1.05;0.93;;;22.60;31.40;;;;;;5067939;28;20110;-59
2021/04/26 01:45:55;;;;;;;1.00;0.98;;;22.60;31.40;;;;;;5065775;28;20094;-60
2021/04/26 01:48:25;;;;;;;1.05;1.05;;;22.60;31.40;;;;;;5065711;28;20060;-60
2021/04/26 01:50:52;;;;;;;0.70;0.70;;;22.60;31.40;;;;;;5065019;28;20048;-60
2021/04/26 01:53:19;;;;;;;0.95;0.95;;;22.60;31.40;;;;;;5066078;28;20129;-59
2021/04/26 01:55:47;;;;;;;1.25;1.10;;;22.60;31.40;;;;;;5065142;28;20561;-59
2021/04/26 01:58:15;;;;;;;0.75;0.75;;;22.60;31.40;;;;;;5065144;28;20127;-59
2021/04/26 02:00:43;;;;;;;1.00;1.00;;;22.70;31.40;;;;;;5065566;28;20413;-59
2021/04/26 02:03:10;;;;;;;1.02;0.90;;;22.70;31.90;;;;;;5065471;28;20084;-58
2021/04/26 02:05:38;;;;;;;1.13;0.90;;;22.70;31.30;;;;;;5065296;28;20479;-58
2021/04/26 02:08:06;;;;;;;0.70;0.70;;;22.70;31.30;;;;;;5065023;28;20556;-58
2021/04/26 02:10:33;;;;;;;2.17;0.95;;;22.70;31.20;;;;;;5065640;28;20482;-59
2021/04/26 02:13:01;;;;;;;1.00;1.00;;;22.70;31.30;;;;;;5065454;28;20052;-59
2021/04/26 02:15:29;;;;;;;0.60;0.60;;;22.70;31.20;;;;;;5066682;28;20048;-59
2021/04/26 02:17:57;;;;;;;0.93;0.90;;;22.80;31.30;;;;;;5064698;28;20455;-59
2021/04/26 02:20:24;;;;;;;0.80;0.80;;;22.80;31.30;;;;;;5065488;28;20691;-59
2021/04/26 02:22:52;;;;;;;1.27;0.90;;;22.70;31.30;;;;;;5065087;28;20251;-59
2021/04/26 02:25:19;;;;;;;0.63;0.60;;;22.80;31.30;;;;;;5065240;28;20512;-58
2021/04/26 02:27:47;;;;;;;1.75;0.60;;;22.80;31.30;;;;;;5065389;28;20059;-58
2021/04/26 02:30:14;;;;;;;1.58;0.90;;;22.80;31.30;;;;;;5066841;28;20045;-59
2021/04/26 02:32:58;;;;;;;1.33;0.93;;;22.80;31.30;;;;;;5065068;28;20080;-59
2021/04/26 02:35:57;;;;;;;1.02;1.02;;;22.80;31.30;;;;;;5066550;28;20560;-59
2021/04/26 02:38:28;;;;;;;1.00;0.90;;;22.80;31.30;;;;;;5066737;28;20214;-59
2021/04/26 02:41:08;;;;;;;0.63;0.63;;;22.80;31.30;;;;;;5066340;28;20044;-59
2021/04/26 02:43:40;;;;;;;1.27;1.17;;;22.80;31.30;;;;;;5066942;28;20072;-58
2021/04/26 02:46:08;;;;;;;1.02;0.85;;;22.80;31.30;;;;;;5066329;28;20119;-58
2021/04/26 02:48:41;;;;;;;1.08;0.90;;;22.80;31.30;;;;;;5066175;28;20098;-61
2021/04/26 02:51:08;;;;;;;0.98;0.98;;;22.80;31.20;;;;;;5067216;28;20057;-59
2021/04/26 02:53:36;;;;;;;0.82;0.82;;;22.80;31.20;;;;;;5066435;28;20041;-59
2021/04/26 02:56:07;;;;;;;0.68;0.65;;;22.80;31.20;;;;;;5064958;28;20091;-59
2021/04/26 02:58:34;;;;;;;0.98;0.80;;;22.80;31.20;;;;;;5064332;28;20049;-59
2021/04/26 03:01:05;;;;;;;1.42;1.02;;;22.80;31.20;;;;;;5063848;28;20072;-59
2021/04/26 03:03:33;;;;;;;0.90;0.90;;;22.80;31.20;;;;;;5064483;28;20072;-58
2021/04/26 03:06:01;;;;;;;0.70;0.70;;;22.80;31.30;;;;;;5064429;28;20049;-58
2021/04/26 03:08:29;;;;;;;0.77;0.77;;;22.80;31.20;;;;;;5064406;28;20084;-59
2021/04/26 03:10:57;;;;;;;0.85;0.80;;;22.80;31.20;;;;;;5064622;28;20144;-59
2021/04/26 03:13:29;;;;;;;0.50;0.50;;;22.80;31.30;;;;;;5064800;28;20128;-59
2021/04/26 03:15:56;;;;;;;1.00;0.82;;;22.80;31.30;;;;;;5064036;28;20125;-58
2021/04/26 03:18:24;;;;;;;1.35;0.90;;;22.80;31.20;;;;;;5064302;28;20505;-58
2021/04/26 03:20:51;;;;;;;1.02;0.98;;;22.80;31.30;;;;;;5064711;28;20124;-58
2021/04/26 03:23:24;;;;;;;0.77;0.70;;;22.80;31.30;;;;;;5064298;28;20055;-58
2021/04/26 03:25:54;;;;;;;0.80;0.80;;;22.80;31.20;;;;;;5064729;28;20513;-58
2021/04/26 03:28:21;;;;;;;;;;;22.80;31.30;;;;;;5064194;28;20066;-59
2021/04/26 03:30:48;;;;;;;0.52;0.52;;;22.80;31.30;;;;;;5064337;28;19924;-59
2021/04/26 03:33:15;;;;;;;1.40;0.60;;;22.80;31.30;;;;;;5064349;28;20132;-59
2021/04/26 03:35:43;;;;;;;0.75;0.75;;;22.80;31.30;;;;;;5064311;28;20528;-59
2021/04/26 03:38:11;;;;;;;0.70;0.70;;;22.80;31.30;;;;;;5067569;28;20309;-59
2021/04/26 03:40:38;;;;;;;0.60;0.60;;;22.80;31.30;;;;;;5068080;28;20059;-60
2021/04/26 03:43:05;;;;;;;0.70;0.70;;;22.80;31.30;;;;;;5067741;28;20351;-60
2021/04/26 03:45:32;;;;;;;0.98;0.80;;;22.80;31.20;;;;;;5067912;28;20076;-60
2021/04/26 03:47:59;;;;;;;0.85;0.80;;;22.80;31.20;;;;;;5067652;28;20079;-61
2021/04/26 03:50:27;;;;;;;0.60;0.60;;;22.80;31.20;;;;;;5068629;28;20049;-61
2021/04/26 03:52:54;;;;;;;0.70;0.70;;;22.80;31.20;;;;;;5067658;28;20139;-60
2021/04/26 03:55:22;;;;;;;0.73;0.73;;;22.80;31.20;;;;;;5067902;28;20059;-60
2021/04/26 03:57:50;;;;;;;0.93;0.70;;;22.80;31.20;;;;;;5061913;28;20160;-60
2021/04/26 04:00:19;;;;;;;0.73;0.73;;;22.80;31.30;;;;;;5047357;28;20084;-60
2021/04/26 04:02:46;;;;;;;0.88;0.88;;;22.80;31.30;;;;;;5048179;28;20107;-60
2021/04/26 04:05:14;;;;;;;1.02;0.93;;;22.80;31.30;;;;;;5047155;28;20059;-59
2021/04/26 04:07:41;;;;;;;0.77;0.75;;;22.80;31.30;;;;;;5047974;28;20637;-59
2021/04/26 04:10:11;;;;;;;0.82;0.68;;;22.80;31.20;;;;;;5046968;28;20087;-60
2021/04/26 04:12:38;;;;;;;1.02;0.98;;;22.80;31.20;;;;;;5047872;28;20091;-58
2021/04/26 04:15:06;;;;;;;0.60;0.60;;;22.80;31.20;;;;;;5047022;28;20171;-58
2021/04/26 04:17:33;;;;;;;0.70;0.70;;;22.80;31.20;;;;;;5047394;28;20106;-59
2021/04/26 04:20:06;;;;;;;0.95;0.65;;;22.80;31.20;;;;;;5046938;28;20045;-61
2021/04/26 04:22:33;;;;;;;0.70;0.70;;;22.80;31.20;;;;;;5046569;28;20144;-60
2021/04/26 04:25:00;;;;;;;0.82;0.82;;;22.80;31.20;;;;;;5046727;28;20128;-61
2021/04/26 04:27:27;;;;;;;0.77;0.77;;;22.80;31.20;;;;;;5047122;28;20041;-62
2021/04/26 04:29:54;;;;;;;0.90;0.90;;;22.80;31.20;;;;;;5046627;28;20519;-59
2021/04/26 04:32:21;;;;;;;0.60;0.60;;;22.80;31.20;;;;;;5047391;28;20137;-59
2021/04/26 04:34:47;;;;;;;0.55;0.55;;;22.80;31.10;;;;;;5046202;28;20160;-59
2021/04/26 04:37:14;;;;;;;0.60;0.60;;;22.90;31.20;;;;;;5047266;28;20080;-60
2021/04/26 04:39:41;;;;;;;0.63;0.63;;;22.90;31.10;;;;;;5046491;28;20118;-60
2021/04/26 04:42:08;;;;;;;0.52;0.52;;;22.80;31.10;;;;;;5049884;28;20057;-60
2021/04/26 04:44:35;;;;;;;1.25;0.70;;;22.80;31.10;;;;;;5059802;28;20047;-60
2021/04/26 04:47:02;;;;;;;1.20;1.10;;;22.80;31.10;;;;;;5053932;28;20065;-61
2021/04/26 04:49:29;;;;;;;0.60;0.60;;;22.80;31.10;;;;;;5052938;28;20049;-61
2021/04/26 04:51:56;;;;;;;0.50;0.50;;;22.80;31.20;;;;;;5056780;28;20425;-61
2021/04/26 04:54:22;;;;;;;0.65;0.65;;;22.80;31.10;;;;;;5059116;28;20040;-61
2021/04/26 04:56:53;;;;;;;0.45;0.45;;;22.90;31.20;;;;;;5057613;28;20041;-61
2021/04/26 04:59:21;;;;;;;0.77;0.77;;;22.80;31.20;;;;;;5058334;28;20048;-61
2021/04/26 05:01:48;;;;;;;0.88;0.80;;;22.80;31.10;;;;;;5055786;28;20565;-61
2021/04/26 05:04:16;;;;;;;0.70;0.70;;;22.80;31.10;;;;;;5057063;28;20064;-62
2021/04/26 05:06:43;;;;;;;2.03;0.50;;;22.80;31.00;;;;;;5056851;28;20036;-61
2021/04/26 05:09:10;;;;;;;1.23;0.73;;;22.80;31.00;;;;;;5054830;28;20048;-60
2021/04/26 05:11:37;;;;;;;0.98;0.98;;;22.90;31.00;;;;;;5064587;28;20045;-61
2021/04/26 05:14:03;;;;;;;0.65;0.65;;;22.90;30.80;;;;;;5059473;28;20051;-61
2021/04/26 05:16:32;;;;;;;0.80;0.70;;;22.90;30.70;;;;;;5065550;28;20041;-61
2021/04/26 05:19:00;;;;;;;0.93;0.75;;;22.90;30.50;;;;;;5062147;28;20056;-64
2021/04/26 05:21:27;;;;;;;1.33;0.73;;;23.00;30.40;;;;;;5065415;28;20085;-61
2021/04/26 05:23:55;;;;;;;0.80;0.80;;;23.00;30.20;;;;;;5049321;28;20048;-62
2021/04/26 05:26:25;;;;;;;0.73;0.73;;;23.00;30.00;;;;;;5051695;28;20106;-61
2021/04/26 05:28:52;;;;;;;1.10;1.02;;;23.10;30.00;;;;;;5054719;28;20044;-62
2021/04/26 05:31:19;;;;;;;1.48;1.05;;;23.20;30.00;;;;;;5054886;28;20044;-63
2021/04/26 05:33:47;;;;;;;1.13;1.13;;;23.20;29.90;;;;;;5052261;28;20044;-63
2021/04/26 05:36:14;;;;;;;1.08;0.98;;;23.30;29.80;;;;;;5054783;28;20050;-64
2021/04/26 05:38:41;;;;;;;1.50;1.08;;;23.30;29.70;;;;;;5047539;28;20048;-64
2021/04/26 05:41:08;;;;;;;1.13;0.90;;;23.40;29.60;;;;;;5051159;28;20733;-64
2021/04/26 05:43:35;;;;;;;3.75;1.50;;;23.50;29.60;;;;;;5054615;28;20438;-63
2021/04/26 05:46:01;;;;;;;1.40;0.98;;;23.60;29.60;;;;;;5054454;28;20069;-63
2021/04/26 05:48:28;;;;;;;1.67;0.85;;;23.60;29.50;;;;;;5054518;28;20044;-62
2021/04/26 05:50:56;;;;;;;1.80;1.10;;;23.70;29.40;;;;;;5053900;28;20075;-62
2021/04/26 05:53:23;;;;;;;4.88;1.17;;;23.80;29.50;;;;;;5050397;28;20040;-63
2021/04/26 05:55:51;;;;;;;1.63;0.98;;;23.90;29.50;;;;;;5055443;28;20084;-63
2021/04/26 05:58:18;;;;;;;1.05;0.95;;;23.90;29.30;;;;;;5051316;28;20371;-65
2021/04/26 06:00:46;;;;;;;1.48;1.33;;;24.00;29.20;;;;;;5051634;28;20045;-65
2021/04/26 06:03:13;;;;;;;1.08;0.98;;;24.10;29.10;;;;;;5062573;28;20132;-65
2021/04/26 06:05:40;;;;;;;1.08;1.00;;;24.10;29.00;;;;;;5056166;28;20564;-64
2021/04/26 06:08:12;;;;;;;1.77;1.10;;;24.10;29.00;;;;;;5052754;28;20557;-66
2021/04/26 06:10:38;;;;;;;2.92;1.58;;;24.10;29.00;;;;;;5058645;28;20386;-66
2021/04/26 06:13:05;;;;;;;0.93;0.93;;;24.10;28.90;;;;;;5056029;28;20127;-63
2021/04/26 06:15:32;;;;;;;1.75;1.30;;;24.10;28.90;;;;;;5052566;28;20087;-64
2021/04/26 06:18:14;;;;;;;2.57;1.33;;;24.10;28.90;;;;;;5052944;28;20132;-64
2021/04/26 06:20:42;;;;;;;1.42;1.10;;;24.20;29.00;;;;;;5056682;28;20068;-63
2021/04/26 06:23:09;;;;;;;1.67;1.20;;;24.20;28.90;;;;;;5050469;28;20052;-63
2021/04/26 06:25:38;;;;;;;2.55;1.35;;;24.20;28.90;;;;;;5051976;28;20123;-63
2021/04/26 06:28:05;;;;;;;1.77;1.20;;;24.20;28.90;;;;;;5049447;28;20102;-61
2021/04/26 06:30:32;;;;;;;2.15;1.55;;;24.20;28.90;;;;;;5049100;28;20800;-61
2021/04/26 06:32:59;;;;;;;2.40;1.15;;;24.20;28.90;;;;;;5051796;28;20155;-63
2021/04/26 06:35:26;;;;;;;1.30;1.08;;;24.20;29.00;;;;;;5054312;28;20044;-62
2021/04/26 06:37:54;;;;;;;1.63;1.05;;;24.20;29.00;;;;;;5048536;28;20080;-61
2021/04/26 06:40:21;;;;;;;1.50;1.17;;;24.20;29.10;;;;;;5053034;28;20131;-61
2021/04/26 06:42:48;;;;;;;1.88;1.23;;;24.20;29.00;;;;;;5051774;28;20048;-62
2021/04/26 06:45:21;;;;;;;1.63;1.52;;;24.30;29.00;;;;;;5054674;28;20054;-60
2021/04/26 06:47:49;;;;;;;3.53;1.50;;;24.30;29.00;;;;;;5054182;28;20448;-61
2021/04/26 06:50:17;;;;;;;2.33;1.30;;;24.20;28.90;;;;;;5050698;28;20474;-61
2021/04/26 06:52:49;;;;;;;2.50;1.25;;;24.30;28.90;;;;;;5049305;28;20094;-59
2021/04/26 06:55:17;;;;;;;3.05;1.50;;;24.30;28.90;;;;;;5048310;28;20122;-61
2021/04/26 06:57:43;;;;;;;1.42;1.15;;;24.30;28.90;;;;;;5052449;28;20050;-61
2021/04/26 07:00:12;;;;;;;1.58;1.13;;;24.30;28.90;;;;;;5053693;28;20090;-61
2021/04/26 07:02:38;;;;;;;1.95;1.63;;;24.30;28.90;;;;;;5049179;28;20087;-60
2021/04/26 07:05:08;;;;;;;3.30;1.17;;;24.30;29.00;;;;;;5053171;28;20049;-59
2021/04/26 07:07:35;;;;;;;1.27;1.05;;;24.40;29.00;;;;;;5053442;28;20131;-57
2021/04/26 07:10:04;;;;;;;1.40;1.30;;;24.40;29.00;;;;;;5051368;28;20510;-59
2021/04/26 07:12:31;;;;;;;1.55;1.42;;;24.40;29.00;;;;;;5052706;28;20087;-60
2021/04/26 07:14:59;;;;;;;1.60;1.35;;;24.40;29.00;;;;;;5057128;28;20444;-58
2021/04/26 07:17:26;;;;;;;1.80;1.42;;;24.40;29.00;;;;;;5054823;28;20044;-60
2021/04/26 07:19:53;;;;;;;3.92;1.30;;;24.40;29.00;;;;;;5062042;28;20060;-60
2021/04/26 07:22:20;;;;;;;1.73;1.40;;;24.40;29.00;;;;;;5051017;28;20099;-60
2021/04/26 07:24:47;;;;;;;1.50;1.40;;;24.50;29.00;;;;;;5053450;28;20145;-61
2021/04/26 07:27:14;;;;;;;2.85;1.33;;;24.50;29.00;;;;;;5061102;28;20473;-62
2021/04/26 07:29:41;;;;;;;1.80;1.20;;;24.50;29.00;;;;;;5059517;28;20110;-60
2021/04/26 07:32:08;;;;;;;3.20;1.20;;;24.50;29.00;;;;;;5051438;28;20052;-61
2021/04/26 07:34:34;;;;;;;3.80;1.15;;;24.50;29.00;;;;;;5054394;28;21417;-60
2021/04/26 07:37:02;;;;;;;1.20;1.10;;;24.50;29.00;;;;;;5062650;28;20135;-59
2021/04/26 07:39:31;;;;;;;3.92;1.98;;;24.60;29.00;;;;;;5058086;28;20124;-60
2021/04/26 07:41:59;;;;;;;6.70;1.83;;;24.60;29.00;;;;;;5057223;28;20072;-62
2021/04/26 07:44:28;;;;;;;4.45;1.80;;;24.70;29.10;;;;;;5063821;28;20123;-61
2021/04/26 07:46:56;;;;;;;1.98;1.33;;;24.70;29.10;;;;;;5053811;28;20072;-61
2021/04/26 07:49:24;;;;;;;8.50;1.60;;;24.80;29.10;;;;;;5054105;28;20055;-63
2021/04/26 07:51:51;;;;;;;3.90;1.75;;;24.90;28.90;;;;;;5056803;28;20463;-61
2021/04/26 07:54:18;;;;;;;3.47;1.20;;;24.90;28.90;;;;;;5050787;28;20084;-62
2021/04/26 07:56:45;;;;;;;1.77;1.30;;;25.00;29.00;;;;;;5057312;28;20044;-63
2021/04/26 07:59:12;;;;;;;1.52;1.42;;;25.00;29.00;;;;;;5051993;28;20128;-61
2021/04/26 08:01:39;;;;;;;1.70;1.17;;;25.10;29.00;;;;;;5056558;28;20519;-63
2021/04/26 08:04:06;;;;;;;3.53;1.65;;;25.10;29.00;;;;;;5057353;28;20052;-67
2021/04/26 08:06:33;;;;;;;1.73;1.35;;;25.20;28.90;;;;;;5055765;28;20048;-64
2021/04/26 08:09:00;;;;;;;1.40;1.00;;;25.20;28.80;;;;;;5055976;28;20045;-64
2021/04/26 08:11:26;;;;;;;2.58;1.20;;;25.30;28.80;;;;;;5053781;28;20080;-62
2021/04/26 08:13:53;;;;;;;2.05;1.58;;;25.30;28.50;;;;;;5057186;28;20128;-60
2021/04/26 08:16:20;;;;;;;3.92;1.80;;;25.40;28.70;;;;;;5057426;28;20041;-61
2021/04/26 08:18:51;;;;;;;2.28;1.40;;;25.40;28.70;;;;;;5054425;28;20055;-61
2021/04/26 08:21:18;;;;;;;1.27;1.17;;;25.50;28.70;;;;;;5062387;28;20128;-63
2021/04/26 08:23:46;;;;;;;2.90;1.52;;;25.60;28.70;;;;;;5055035;28;20060;-62
2021/04/26 08:26:12;;;;;;;1.63;1.30;;;25.60;28.70;;;;;;5054639;28;20292;-61
2021/04/26 08:28:39;;;;;;;2.97;1.35;;;25.60;28.60;;;;;;5054988;28;20072;-63
2021/04/26 08:31:07;;;;;;;3.97;1.30;;;25.70;28.60;;;;;;5054125;28;20125;-63
2021/04/26 08:33:41;;;;;;;5.20;1.35;;;25.70;28.40;;;;;;5053776;28;20049;-67
2021/04/26 08:36:09;;;;;;;1.42;0.98;;;25.70;28.40;;;;;;5051951;28;20052;-64
2021/04/26 08:38:36;;;;;;;4.82;1.80;;;25.70;28.40;;;;;;5057167;28;20201;-67
2021/04/26 08:41:02;;;;;;;1.77;1.40;;;25.70;28.50;;;;;;5058163;28;20040;-63
2021/04/26 08:43:30;;;;;;;3.10;1.40;;;25.70;28.20;;;;;;5051647;28;20089;-63
2021/04/26 08:46:02;;;;;;;3.88;1.60;;;25.70;28.10;;;;;;5057330;28;20061;-63
2021/04/26 08:48:29;;;;;;;2.47;1.75;;;25.70;28.00;;;;;;5052205;28;20146;-63
2021/04/26 08:50:56;;;;;;;2.20;1.17;;;25.80;28.10;;;;;;5052705;28;20496;-64
2021/04/26 08:53:23;;;;;;;2.17;1.83;;;25.80;28.30;;;;;;5053902;28;20084;-67
2021/04/26 08:55:50;;;;;;;3.55;1.50;;;25.80;28.30;;;;;;5052511;28;20215;-72
2021/04/26 08:58:17;;;;;;;2.42;1.75;;;25.80;28.10;;;;;;5053623;28;20131;-64
2021/04/26 09:00:44;;;;;;;2.55;1.85;;;25.80;28.10;;;;;;5051978;28;20062;-66
2021/04/26 09:03:10;;;;;;;1.58;1.48;;;25.70;28.20;;;;;;5054598;28;20077;-66
2021/04/26 09:05:40;;;;;;;3.22;1.73;;;25.70;28.10;;;;;;5052215;28;20124;-62
2021/04/26 09:08:13;;;;;;;1.98;1.80;;;25.80;28.20;;;;;;5052473;28;20135;-61
2021/04/26 09:10:44;;;;;;;2.33;1.58;;;25.70;28.10;;;;;;5053531;28;20486;-60
2021/04/26 09:13:27;;;;;;;3.50;2.00;;;25.70;27.90;;;;;;5050494;28;20141;-60
2021/04/26 09:15:59;;;;;;;4.55;1.98;;;25.70;27.90;;;;;;5048927;28;20866;-60
2021/04/26 09:18:49;;;;;;;4.32;1.90;;;25.70;27.80;;;;;;5059244;28;20053;-60
2021/04/26 09:21:17;;;;;;;;;;;25.70;27.70;;;;;;5051751;28;20098;-60
2021/04/26 09:23:45;;;;;;;2.05;1.85;;;25.70;27.70;;;;;;5050546;28;19920;-61
2021/04/26 09:26:27;;;;;;;3.22;1.90;;;25.70;27.60;;;;;;5051977;28;20040;-61
2021/04/26 09:29:19;;;;;;;2.65;1.92;;;25.70;27.60;;;;;;5054894;28;20052;-61
2021/04/26 09:32:10;;;;;;;4.28;2.00;;;25.70;27.50;;;;;;5056042;28;20574;-59
2021/04/26 09:34:43;;;;;;;3.03;1.88;;;25.70;27.50;;;;;;5048367;28;20048;-60
2021/04/26 09:37:22;;;;;;;2.63;1.73;;;25.80;27.50;;;;;;5055275;28;20129;-59
2021/04/26 09:40:12;;;;;;;2.38;1.70;;;25.70;27.50;;;;;;5054740;28;20513;-59
2021/04/26 09:42:49;;;;;;;3.42;1.92;;;25.80;27.50;;;;;;5053216;28;20110;-59
2021/04/26 09:45:44;;;;;;;2.63;1.80;;;25.80;27.40;;;;;;5058256;28;20557;-59
2021/04/26 09:48:26;;;;;;;3.88;2.30;;;25.80;27.40;;;;;;5048931;28;20095;-59
2021/04/26 09:51:06;;;;;;;2.20;1.60;;;25.80;27.40;;;;;;5047046;28;20052;-60
2021/04/26 09:53:45;;;;;;;2.80;1.60;;;25.90;27.40;;;;;;5058326;28;20044;-59
2021/04/26 09:56:19;;;;;;;4.97;1.90;;;25.90;27.30;;;;;;5048108;28;20501;-56
2021/04/26 09:58:49;;;;;;;1.80;1.67;;;26.00;27.20;;;;;;5049592;28;20053;-58
2021/04/26 10:01:18;;;;;;;3.00;1.73;;;26.00;27.20;;;;;;5051846;28;20175;-59
2021/04/26 10:03:46;;;;;;;2.20;2.00;;;26.10;27.00;;;;;;5054706;28;20063;-59
2021/04/26 10:06:19;;;;;;;2.33;1.80;;;26.10;27.00;;;;;;5055671;28;20083;-57
2021/04/26 10:08:48;;;;;;;3.10;1.73;;;26.10;27.00;;;;;;5059581;28;20497;-56
2021/04/26 10:11:16;;;;;;;2.35;2.03;;;26.20;26.90;;;;;;5047991;28;20045;-57
2021/04/26 10:13:45;;;;;;;2.00;1.80;;;26.20;26.70;;;;;;5048679;28;20044;-57
2021/04/26 10:16:20;;;;;;;3.07;2.37;;;26.20;25.30;;;;;;5056306;28;20507;-58
2021/04/26 10:18:47;;;;;;;5.03;1.67;;;26.20;25.20;;;;;;5046453;28;20049;-58
2021/04/26 10:21:36;;;;;;;2.95;2.20;;;26.20;26.00;;;;;;5058741;28;20132;-60
2021/04/26 10:24:16;;;;;;;3.85;2.30;;;26.30;26.50;;;;;;5051327;28;20436;-60
2021/04/26 10:26:53;;;;;;;1.83;1.60;;;26.30;26.10;;;;;;5063583;28;20199;-60
2021/04/26 10:29:31;;;;;;;1.88;1.77;;;26.30;26.30;;;;;;5053510;28;20053;-60
2021/04/26 10:32:09;;;;;;;4.43;1.75;;;26.30;26.50;;;;;;5048033;28;20045;-60
2021/04/26 10:35:07;;;;;;;4.35;2.40;;;26.30;26.50;;;;;;5049632;28;20138;-59
2021/04/26 10:37:34;;;;;;;4.78;2.60;;;26.30;26.00;;;;;;5051062;28;20052;-58
2021/04/26 10:40:12;;;;;;;5.78;2.10;;;26.30;25.50;;;;;;5055891;28;20056;-60
2021/04/26 10:42:54;;;;;;;2.67;1.92;;;26.30;24.80;;;;;;5051168;28;20482;-60
2021/04/26 10:45:27;;;;;;;2.10;1.77;;;26.30;25.10;;;;;;5053017;28;20041;-60
2021/04/26 10:48:10;;;;;;;4.82;2.28;;;26.30;26.00;;;;;;5051457;28;20044;-60
2021/04/26 10:50:41;;;;;;;3.35;1.85;;;26.30;25.20;;;;;;5048620;28;20052;-59
2021/04/26 10:53:10;;;;;;;2.08;1.77;;;26.30;25.70;;;;;;5052940;28;20501;-59
2021/04/26 10:55:54;;;;;;;3.75;2.45;;;26.30;26.00;;;;;;5057958;28;20049;-59
2021/04/26 10:58:31;;;;;;;3.55;2.45;;;26.40;24.90;;;;;;5047965;28;20063;-59
2021/04/26 11:00:58;;;;;;;4.90;2.30;;;26.40;24.80;;;;;;5053001;28;20469;-60
2021/04/26 11:03:32;;;;;;;6.07;2.38;;;26.40;24.70;;;;;;5050942;28;20060;-60
2021/04/26 11:06:09;;;;;;;3.22;2.25;;;26.30;25.00;;;;;;5046326;28;20544;-60
2021/04/26 11:08:41;;;;;;;2.30;2.10;;;26.30;25.50;;;;;;5052933;28;20493;-61
2021/04/26 11:11:25;;;;;;;4.05;2.22;;;26.40;25.10;;;;;;5049119;28;20049;-61
2021/04/26 11:13:55;;;;;;;2.75;2.10;;;26.40;25.60;;;;;;5048672;28;20049;-61
2021/04/26 11:17:04;;;;;;;2.38;2.17;;;26.40;25.80;;;;;;5053829;28;20046;-61
2021/04/26 11:19:33;;;;;;;2.92;1.70;;;26.50;26.10;;;;;;5055261;28;20071;-61
2021/04/26 11:22:00;;;;;;;1.50;1.40;;;26.50;26.20;;;;;;5053648;28;20040;-61
2021/04/26 11:24:48;;;;;;;2.35;1.88;;;26.50;26.10;;;;;;5048516;28;20563;-61
2021/04/26 11:27:21;;;;;;;3.50;2.13;;;26.60;26.00;;;;;;5057806;28;20040;-60
2021/04/26 11:30:10;;;;;;;3.70;2.00;;;26.60;26.10;;;;;;5050132;28;20108;-61
2021/04/26 11:32:55;;;;;;;3.05;2.08;;;26.60;26.20;;;;;;5051818;28;20047;-60
2021/04/26 11:35:22;;;;;;;3.28;1.95;;;26.60;26.20;;;;;;5047362;28;20079;-61
2021/04/26 11:37:50;;;;;;;2.80;1.95;;;26.70;26.40;;;;;;5052760;28;20102;-64
2021/04/26 11:40:23;;;;;;;2.60;1.70;;;26.70;26.50;;;;;;5052206;28;20095;-65
2021/04/26 11:42:50;;;;;;;2.50;1.77;;;26.80;26.30;;;;;;5046173;28;20053;-65
2021/04/26 11:45:21;;;;;;;6.63;2.10;;;26.80;26.30;;;;;;5050178;28;20054;-66
2021/04/26 11:47:49;;;;;;;1.70;1.60;;;26.90;26.60;;;;;;5050144;28;20080;-66
2021/04/26 11:50:16;;;;;;;1.90;1.75;;;26.90;26.40;;;;;;5056288;28;20099;-67
2021/04/26 11:52:43;;;;;;;3.95;1.77;;;26.90;26.30;;;;;;5048491;28;20049;-66
2021/04/26 11:55:19;;;;;;;4.57;1.75;;;26.90;26.10;;;;;;5050824;28;20571;-66
2021/04/26 11:57:54;;;;;;;2.78;1.30;;;26.90;26.30;;;;;;5050494;28;20053;-60
2021/04/26 12:00:28;;;;;;;6.00;1.80;;;26.90;26.40;;;;;;5050827;28;20052;-64
2021/04/26 12:03:08;;;;;;;2.45;1.58;;;26.90;26.40;;;;;;5051190;28;20052;-64
2021/04/26 12:05:35;;;;;;;2.38;1.55;;;27.00;26.50;;;;;;5054044;28;20056;-61
2021/04/26 12:08:03;;;;;;;2.92;1.65;;;27.00;26.30;;;;;;5052945;28;20044;-61
2021/04/26 12:10:41;;;;;;;2.17;1.58;;;27.00;26.30;;;;;;5055104;28;20090;-60
2021/04/26 12:13:09;;;;;;;2.38;1.70;;;27.00;26.40;;;;;;5056916;28;20499;-60
2021/04/26 12:15:39;;;;;;;1.85;1.70;;;27.00;26.50;;;;;;5056445;28;20045;-59
2021/04/26 12:18:08;;;;;;;2.13;1.90;;;27.10;26.50;;;;;;5053618;28;20434;-59
2021/04/26 12:20:37;;;;;;;3.88;1.92;;;27.10;26.50;;;;;;5053700;28;20095;-61
2021/04/26 12:23:14;;;;;;;5.93;2.13;;;27.10;26.50;;;;;;5053286;28;20463;-60
2021/04/26 12:25:42;;;;;;;1.77;1.63;;;27.10;26.50;;;;;;5052088;28;20289;-60
2021/04/26 12:28:15;;;;;;;2.33;1.60;;;27.10;26.40;;;;;;5053117;28;20088;-61
2021/04/26 12:30:44;;;;;;;3.28;2.00;;;27.10;26.30;;;;;;5051999;28;20135;-61
2021/04/26 12:33:30;;;;;;;1.65;1.40;;;27.10;26.30;;;;;;5053401;28;20064;-61
2021/04/26 12:36:01;;;;;;;2.13;1.40;;;27.10;26.30;;;;;;5050353;28;20492;-60
2021/04/26 12:38:33;;;;;;;2.47;1.83;;;27.10;26.30;;;;;;5054604;28;20053;-60
2021/04/26 12:41:00;;;;;;;4.20;2.30;;;27.10;26.30;;;;;;5052174;28;20040;-58
2021/04/26 12:43:33;;;;;;;3.38;2.47;;;27.10;26.10;;;;;;5053685;28;20048;-58
2021/04/26 12:46:05;;;;;;;3.30;2.95;;;27.00;25.10;;;;;;5055278;28;20117;-59
2021/04/26 12:48:34;;;;;;;3.22;2.25;;;26.90;25.10;;;;;;5057503;28;20400;-59
2021/04/26 12:51:03;;;;;;;3.63;2.58;;;26.80;25.40;;;;;;5053078;28;20128;-59
2021/04/26 12:53:33;;;;;;;4.70;3.15;;;26.80;25.10;;;;;;5047343;28;20064;-59
2021/04/26 12:56:17;;;;;;;4.40;3.00;;;26.70;24.30;;;;;;5050716;28;20126;-59
2021/04/26 12:58:50;;;;;;;4.80;3.22;;;26.50;24.20;;;;;;5052252;28;20143;-59
2021/04/26 13:01:21;;;;;;;2.70;2.45;;;26.40;24.70;;;;;;5054724;28;20066;-61
2021/04/26 13:03:57;;;;;;;2.15;1.98;;;26.40;25.30;;;;;;5052093;28;20087;-61
2021/04/26 13:06:42;;;;;;;3.45;1.90;;;26.40;25.70;;;;;;5058024;28;20054;-61